Time;durP1;ratioP1;P1;durP2;ratioP2;P2;SDS_P1;SDS_P2;PMS_P1;PMS_P2;Temp;Humidity;BMP_temperature;BMP_pressure;BME280_temperature;BME280_humidity;BME280_pressure;Samples;Min_cycle;Max_cycle;Signal;HPM_P1;HPM_P2
2022/10/21 00:00:35;;;;;;;23.58;2.45;;;25.10;42.40;;;;;;6099042;29;20036;-77
2022/10/21 00:03:36;;;;;;;14.32;2.15;;;25.10;42.30;;;;;;6099666;29;20103;-77
2022/10/21 00:06:37;;;;;;;25.77;2.75;;;25.10;42.20;;;;;;6104070;29;20028;-77
2022/10/21 00:09:38;;;;;;;13.27;2.40;;;25.10;42.00;;;;;;6114375;29;20047;-77
2022/10/21 00:12:39;;;;;;;13.23;1.88;;;25.20;41.90;;;;;;6098841;29;20147;-77
2022/10/21 00:15:40;;;;;;;11.88;1.85;;;25.30;42.20;;;;;;6095768;29;20059;-76
2022/10/21 00:18:44;;;;;;;13.27;3.08;;;25.40;41.60;;;;;;6095252;29;20642;-76
2022/10/21 00:21:44;;;;;;;16.70;2.63;;;25.40;41.50;;;;;;6091325;29;20048;-76
2022/10/21 00:24:45;;;;;;;12.98;2.25;;;25.50;41.20;;;;;;6097081;29;20040;-76
2022/10/21 00:27:47;;;;;;;18.20;2.40;;;25.50;40.50;;;;;;6100917;29;20119;-76
2022/10/21 00:30:48;;;;;;;10.40;2.08;;;25.60;40.00;;;;;;6101862;29;20036;-77
2022/10/21 00:33:49;;;;;;;18.48;2.50;;;25.70;40.50;;;;;;6102459;29;20045;-76
2022/10/21 00:36:50;;;;;;;18.10;2.55;;;25.70;39.50;;;;;;6104003;29;20056;-76
2022/10/21 00:39:51;;;;;;;14.15;2.22;;;25.80;39.20;;;;;;6103727;29;20123;-77
2022/10/21 00:42:52;;;;;;;13.05;1.83;;;25.90;39.10;;;;;;6103389;29;20048;-76
2022/10/21 00:46:03;;;;;;;12.05;2.33;;;26.00;38.90;;;;;;6100848;29;20124;-76
2022/10/21 00:49:08;;;;;;;19.52;2.05;;;26.00;38.80;;;;;;6112873;29;20460;-76
2022/10/21 00:52:16;;;;;;;14.38;2.10;;;26.00;38.80;;;;;;6096126;29;20088;-76
2022/10/21 00:55:16;;;;;;;;;;;26.10;38.80;;;;;;6098187;29;20476;-77
2022/10/21 00:58:23;;;;;;;13.93;2.08;;;26.10;38.30;;;;;;6100244;29;19911;-76
2022/10/21 01:01:24;;;;;;;10.88;2.03;;;26.20;38.10;;;;;;6100214;29;20058;-76
2022/10/21 01:04:25;;;;;;;24.73;3.33;;;26.20;38.30;;;;;;6099238;29;20103;-76
2022/10/21 01:07:26;;;;;;;13.52;2.05;;;26.20;38.20;;;;;;6102041;29;20059;-76
2022/10/21 01:10:28;;;;;;;17.48;2.42;;;26.20;38.10;;;;;;6102412;29;20047;-76
2022/10/21 01:14:03;;;;;;;21.63;2.53;;;26.30;38.40;;;;;;6101099;29;20024;-77
2022/10/21 01:17:15;;;;;;;14.40;2.97;;;26.10;38.40;;;;;;6104943;29;20102;-77
2022/10/21 01:20:53;;;;;;;9.48;2.00;;;26.10;38.40;;;;;;6100328;29;20449;-76
2022/10/21 01:24:23;;;;;;;13.10;2.80;;;26.10;38.50;;;;;;6101981;29;20119;-76
2022/10/21 01:27:47;;;;;;;17.52;1.73;;;26.00;38.70;;;;;;6101682;29;20036;-78
2022/10/21 01:30:56;;;;;;;19.45;2.92;;;25.90;38.70;;;;;;6098601;29;20115;-77
2022/10/21 01:34:09;;;;;;;14.48;2.55;;;25.90;38.40;;;;;;6097879;29;20119;-77
2022/10/21 01:37:09;;;;;;;17.52;2.10;;;25.90;38.40;;;;;;6098534;29;20115;-77
2022/10/21 01:40:19;;;;;;;24.13;2.13;;;26.00;38.20;;;;;;6086665;29;20356;-77
2022/10/21 01:43:34;;;;;;;19.17;2.45;;;26.00;37.80;;;;;;6085452;29;20035;-77
2022/10/21 01:47:04;;;;;;;18.27;1.95;;;26.00;37.80;;;;;;6100961;29;20043;-76
2022/10/21 01:50:12;;;;;;;11.95;1.83;;;26.10;37.30;;;;;;6098365;29;20036;-77
2022/10/21 01:53:14;;;;;;;13.70;2.38;;;26.10;37.30;;;;;;6093502;29;20186;-77
2022/10/21 01:56:17;;;;;;;14.68;2.20;;;26.20;37.20;;;;;;6089731;29;20447;-78
2022/10/21 01:59:19;;;;;;;30.98;3.15;;;26.30;37.20;;;;;;6098886;29;20036;-77
2022/10/21 02:02:24;;;;;;;20.30;2.05;;;26.30;37.10;;;;;;6101867;29;20389;-77
2022/10/21 02:05:30;;;;;;;22.58;2.78;;;26.30;37.10;;;;;;6103199;29;20159;-77
2022/10/21 02:08:31;;;;;;;16.23;2.55;;;26.30;37.20;;;;;;6102306;29;20043;-77
2022/10/21 02:11:35;;;;;;;15.60;2.20;;;26.30;37.10;;;;;;6102629;29;20035;-77
2022/10/21 02:14:42;;;;;;;12.98;2.40;;;26.30;37.20;;;;;;6102295;29;20041;-77
2022/10/21 02:17:50;;;;;;;12.52;2.28;;;26.30;37.20;;;;;;6100256;29;20039;-77
2022/10/21 02:20:58;;;;;;;17.38;2.20;;;26.30;37.30;;;;;;6102313;29;20032;-77
2022/10/21 02:24:25;;;;;;;16.10;2.72;;;26.30;37.10;;;;;;6111061;29;20362;-77
2022/10/21 02:27:26;;;;;;;25.77;2.85;;;26.30;37.20;;;;;;6103048;29;20028;-77
2022/10/21 02:30:34;;;;;;;21.83;3.30;;;26.30;36.80;;;;;;6101418;29;20028;-77
2022/10/21 02:33:41;;;;;;;;;;;26.30;36.90;;;;;;6101963;29;20040;-77
2022/10/21 02:36:45;;;;;;;14.30;2.50;;;26.30;36.90;;;;;;6097590;29;19970;-77
2022/10/21 02:39:49;;;;;;;19.17;2.72;;;26.30;36.80;;;;;;6102207;29;20040;-77
2022/10/21 02:42:56;;;;;;;18.17;2.40;;;26.30;36.90;;;;;;6099265;29;20032;-77
2022/10/21 02:46:06;;;;;;;19.87;2.60;;;26.30;37.00;;;;;;6096330;29;20365;-76
2022/10/21 02:49:07;;;;;;;21.52;2.55;;;26.30;36.80;;;;;;6102203;29;20051;-77
2022/10/21 02:52:08;;;;;;;10.73;2.40;;;26.30;36.80;;;;;;6102334;29;20032;-77
2022/10/21 02:55:09;;;;;;;11.15;2.03;;;26.30;36.40;;;;;;6083788;29;20466;-76
2022/10/21 02:58:10;;;;;;;19.45;2.78;;;26.30;36.50;;;;;;6113651;29;20044;-76
2022/10/21 03:01:11;;;;;;;28.33;2.63;;;26.30;36.50;;;;;;6105010;29;20040;-77
2022/10/21 03:04:11;;;;;;;27.40;3.05;;;26.40;36.50;;;;;;6100026;29;20088;-76
2022/10/21 03:07:12;;;;;;;16.83;2.38;;;26.40;36.50;;;;;;6100307;29;20040;-76
2022/10/21 03:10:13;;;;;;;12.75;2.92;;;26.40;36.50;;;;;;6094407;29;20056;-77
2022/10/21 03:13:14;;;;;;;19.15;2.85;;;26.40;36.50;;;;;;6100960;29;20029;-77
2022/10/21 03:16:15;;;;;;;16.08;2.33;;;26.50;36.50;;;;;;6104459;29;20043;-78
2022/10/21 03:19:16;;;;;;;9.50;2.17;;;26.50;36.40;;;;;;6104647;29;20039;-76
2022/10/21 03:22:17;;;;;;;29.38;2.97;;;26.50;36.50;;;;;;6098401;29;20573;-76
2022/10/21 03:25:17;;;;;;;20.60;2.30;;;26.50;36.50;;;;;;6104968;29;20032;-76
2022/10/21 03:28:20;;;;;;;10.55;2.10;;;26.50;36.30;;;;;;6101748;29;20028;-76
2022/10/21 03:31:20;;;;;;;14.63;2.58;;;26.50;36.30;;;;;;6100758;29;20059;-77
2022/10/21 03:34:21;;;;;;;14.65;2.55;;;26.50;36.30;;;;;;6100951;29;20031;-76
2022/10/21 03:37:22;;;;;;;18.75;2.40;;;26.50;36.40;;;;;;6099437;29;20412;-76
2022/10/21 03:40:28;;;;;;;16.42;2.38;;;26.50;36.10;;;;;;6102923;29;20064;-77
2022/10/21 03:43:29;;;;;;;17.17;3.10;;;26.50;36.20;;;;;;6102619;29;20052;-77
2022/10/21 03:46:31;;;;;;;19.70;2.08;;;26.60;36.20;;;;;;6102991;29;20051;-77
2022/10/21 03:49:31;;;;;;;20.67;2.95;;;26.60;36.20;;;;;;6100207;29;20036;-77
2022/10/21 03:52:33;;;;;;;13.48;1.95;;;26.60;36.10;;;;;;6100377;29;20032;-77
2022/10/21 03:55:34;;;;;;;25.65;2.75;;;26.60;36.10;;;;;;6099015;29;20523;-77
2022/10/21 03:58:34;;;;;;;12.75;2.50;;;26.60;36.20;;;;;;6099752;29;20036;-77
2022/10/21 04:01:35;;;;;;;19.42;2.22;;;26.60;36.20;;;;;;6098294;29;20046;-77
2022/10/21 04:04:36;;;;;;;15.23;2.00;;;26.60;36.10;;;;;;6095813;29;20036;-77
2022/10/21 04:07:38;;;;;;;13.18;2.30;;;26.60;36.10;;;;;;6095578;29;20123;-77
2022/10/21 04:10:39;;;;;;;23.38;4.38;;;26.60;36.20;;;;;;6100848;29;20361;-77
2022/10/21 04:13:40;;;;;;;10.38;2.00;;;26.60;36.80;;;;;;6116704;29;20051;-77
2022/10/21 04:16:41;;;;;;;17.38;2.40;;;26.60;36.30;;;;;;6115631;29;20127;-77
2022/10/21 04:19:42;;;;;;;12.18;2.10;;;26.60;36.30;;;;;;6100474;29;20044;-78
2022/10/21 04:22:43;;;;;;;21.15;3.00;;;26.60;36.20;;;;;;6097450;29;20427;-78
2022/10/21 04:25:45;;;;;;;17.25;2.30;;;26.50;36.10;;;;;;6115307;29;20047;-77
2022/10/21 04:28:46;;;;;;;12.05;2.22;;;26.60;36.00;;;;;;6100514;29;20067;-78
2022/10/21 04:31:47;;;;;;;12.50;2.65;;;26.60;36.10;;;;;;6098871;29;20039;-78
2022/10/21 04:34:48;;;;;;;16.70;2.90;;;26.50;36.00;;;;;;6100107;29;20044;-77
2022/10/21 04:37:49;;;;;;;18.58;2.67;;;26.50;36.00;;;;;;6098678;29;20095;-77
2022/10/21 04:41:01;;;;;;;30.35;2.80;;;26.50;36.00;;;;;;6100122;29;20052;-77
2022/10/21 04:44:05;;;;;;;13.38;2.63;;;26.50;36.00;;;;;;6100095;29;20032;-76
2022/10/21 04:47:06;;;;;;;15.48;2.35;;;26.50;36.00;;;;;;6099889;29;20035;-78
2022/10/21 04:50:07;;;;;;;19.58;2.60;;;26.50;36.00;;;;;;6098496;29;20111;-78
2022/10/21 04:53:08;;;;;;;17.50;2.60;;;26.50;36.00;;;;;;6098916;29;20136;-78
2022/10/21 04:56:09;;;;;;;22.63;2.70;;;26.50;36.00;;;;;;6094602;29;20367;-78
2022/10/21 04:59:10;;;;;;;25.30;2.85;;;26.40;36.00;;;;;;6097055;29;20099;-77
2022/10/21 05:02:12;;;;;;;17.83;2.67;;;26.40;36.00;;;;;;6093055;29;20028;-77
2022/10/21 05:05:13;;;;;;;20.85;3.05;;;26.40;36.00;;;;;;6099653;29;20039;-77
2022/10/21 05:08:14;;;;;;;19.38;2.53;;;26.40;36.00;;;;;;6098684;29;20068;-77
2022/10/21 05:11:15;;;;;;;15.00;3.05;;;26.40;36.00;;;;;;6100180;29;20514;-77
2022/10/21 05:14:16;;;;;;;13.80;2.50;;;26.40;36.10;;;;;;6099307;29;20042;-77
2022/10/21 05:17:17;;;;;;;10.77;2.22;;;26.40;36.00;;;;;;6100398;29;20036;-77
2022/10/21 05:20:18;;;;;;;20.23;3.05;;;26.40;36.00;;;;;;6099930;29;20362;-77
2022/10/21 05:23:19;;;;;;;11.57;2.33;;;26.40;36.10;;;;;;6099149;29;20040;-76
2022/10/21 05:26:20;;;;;;;11.52;2.20;;;26.40;36.10;;;;;;6081199;29;20040;-76
2022/10/21 05:29:21;;;;;;;19.17;2.50;;;26.40;36.10;;;;;;6098305;29;20454;-76
2022/10/21 05:32:22;;;;;;;13.95;2.33;;;26.40;36.10;;;;;;6073119;29;20442;-78
2022/10/21 05:35:23;;;;;;;14.93;1.90;;;26.40;36.10;;;;;;6093055;29;20040;-75
2022/10/21 05:38:24;;;;;;;19.70;3.10;;;26.40;36.10;;;;;;6099850;29;20091;-76
2022/10/21 05:41:26;;;;;;;7.47;2.03;;;26.40;36.00;;;;;;6096757;29;20103;-77
2022/10/21 05:44:27;;;;;;;16.13;3.13;;;26.40;36.10;;;;;;6096501;29;20072;-77
2022/10/21 05:47:27;;;;;;;11.80;2.90;;;26.40;36.20;;;;;;6077148;29;20032;-77
2022/10/21 05:50:28;;;;;;;15.65;2.65;;;26.40;36.20;;;;;;6070699;29;20040;-77
2022/10/21 05:53:29;;;;;;;14.48;2.40;;;26.40;36.30;;;;;;6094193;29;20068;-77
2022/10/21 05:56:31;;;;;;;22.40;2.42;;;26.30;36.40;;;;;;6096126;29;20437;-77
2022/10/21 05:59:32;;;;;;;16.27;2.60;;;26.30;36.60;;;;;;6097265;29;20111;-77
2022/10/21 06:02:33;;;;;;;18.20;2.72;;;26.30;36.70;;;;;;6103162;29;20032;-77
2022/10/21 06:05:34;;;;;;;15.43;2.47;;;26.30;36.80;;;;;;6094502;29;20123;-77
2022/10/21 06:08:38;;;;;;;11.68;2.38;;;26.20;36.90;;;;;;6099048;29;20119;-77
2022/10/21 06:11:38;;;;;;;12.95;2.20;;;26.20;37.00;;;;;;6107453;29;20047;-77
2022/10/21 06:14:39;;;;;;;7.90;1.88;;;26.20;37.20;;;;;;6104693;29;20363;-77
2022/10/21 06:17:40;;;;;;;17.33;2.85;;;26.10;37.60;;;;;;6098664;29;20129;-77
2022/10/21 06:20:41;;;;;;;10.77;1.85;;;26.10;37.50;;;;;;6098535;29;20068;-76
2022/10/21 06:23:42;;;;;;;14.05;2.25;;;26.00;37.80;;;;;;6097494;29;20050;-77
2022/10/21 06:26:43;;;;;;;15.18;2.40;;;25.90;38.20;;;;;;6104347;29;20123;-77
2022/10/21 06:29:44;;;;;;;20.55;3.00;;;25.90;38.80;;;;;;6103125;29;20048;-77
2022/10/21 06:32:44;;;;;;;23.85;2.30;;;25.80;39.50;;;;;;6099648;29;20064;-76
2022/10/21 06:35:45;;;;;;;14.73;2.75;;;25.70;40.30;;;;;;6085007;29;20466;-76
2022/10/21 06:38:47;;;;;;;11.70;2.45;;;25.50;40.90;;;;;;6100769;29;20104;-78
2022/10/21 06:41:47;;;;;;;13.98;2.10;;;25.40;41.40;;;;;;6092768;29;20358;-77
2022/10/21 06:45:06;;;;;;;17.23;2.63;;;25.30;41.70;;;;;;6114546;29;20091;-77
2022/10/21 06:48:07;;;;;;;15.27;2.50;;;25.20;42.20;;;;;;6099521;29;20039;-76
2022/10/21 06:51:11;;;;;;;14.40;2.53;;;25.10;42.60;;;;;;6096182;29;20067;-77
2022/10/21 06:54:12;;;;;;;14.65;2.60;;;25.00;42.90;;;;;;6117051;29;20087;-77
2022/10/21 06:57:13;;;;;;;9.43;2.55;;;24.90;43.20;;;;;;6103719;29;20039;-76
2022/10/21 07:00:14;;;;;;;14.95;3.22;;;24.80;43.50;;;;;;6101096;29;20410;-77
2022/10/21 07:03:15;;;;;;;8.88;2.40;;;24.70;43.70;;;;;;6098851;29;20031;-77
2022/10/21 07:06:16;;;;;;;12.25;2.40;;;24.70;44.00;;;;;;6101654;29;20184;-77
2022/10/21 07:09:17;;;;;;;12.40;2.88;;;24.60;44.70;;;;;;6086272;29;20035;-77
2022/10/21 07:12:19;;;;;;;14.93;2.63;;;24.50;45.30;;;;;;6101882;29;20046;-78
2022/10/21 07:15:20;;;;;;;14.75;2.67;;;24.40;46.00;;;;;;6100576;29;20032;-78
2022/10/21 07:18:21;;;;;;;17.08;2.80;;;24.30;46.60;;;;;;6100291;29;20139;-78
2022/10/21 07:21:24;;;;;;;15.02;2.65;;;24.10;47.00;;;;;;6114873;29;24064;-78
2022/10/21 07:24:25;;;;;;;14.45;3.40;;;24.00;47.40;;;;;;6099246;29;20039;-77
2022/10/21 07:27:26;;;;;;;12.18;2.75;;;24.00;47.70;;;;;;6096624;29;20117;-77
2022/10/21 07:30:27;;;;;;;19.98;3.28;;;23.90;47.90;;;;;;6115509;29;20048;-77
2022/10/21 07:33:28;;;;;;;14.20;3.22;;;23.80;48.30;;;;;;6092097;29;20032;-77
2022/10/21 07:36:32;;;;;;;12.85;2.72;;;23.80;49.30;;;;;;6095144;29;20052;-78
2022/10/21 07:39:33;;;;;;;13.07;3.67;;;23.70;49.10;;;;;;6097240;29;20139;-78
2022/10/21 07:42:34;;;;;;;16.88;2.63;;;23.60;49.50;;;;;;6109312;29;20052;-78
2022/10/21 07:45:42;;;;;;;13.27;2.80;;;23.50;50.00;;;;;;6083169;29;20051;-76
2022/10/21 07:48:43;;;;;;;23.60;3.08;;;23.40;50.70;;;;;;6094360;29;20040;-79
2022/10/21 07:51:45;;;;;;;12.35;3.15;;;23.30;51.40;;;;;;6108265;29;20059;-78
2022/10/21 07:54:46;;;;;;;15.13;3.13;;;23.20;52.20;;;;;;6100855;29;20074;-78
2022/10/21 07:57:47;;;;;;;15.82;3.58;;;23.10;52.60;;;;;;6098898;29;20510;-76
2022/10/21 08:00:48;;;;;;;19.55;3.17;;;23.00;52.90;;;;;;6098081;29;20031;-78
2022/10/21 08:03:51;;;;;;;13.88;3.33;;;22.80;53.20;;;;;;6093804;29;20053;-78
2022/10/21 08:06:52;;;;;;;20.10;3.42;;;22.70;53.70;;;;;;6109455;29;20028;-76
2022/10/21 08:09:53;;;;;;;23.80;4.45;;;22.60;54.10;;;;;;6101569;29;20393;-77
2022/10/21 08:12:54;;;;;;;13.65;3.70;;;22.50;55.00;;;;;;6093458;29;20446;-77
2022/10/21 08:15:55;;;;;;;23.25;3.90;;;22.40;55.40;;;;;;6099674;29;20050;-78
2022/10/21 08:18:59;;;;;;;35.75;5.20;;;22.30;55.80;;;;;;6102254;29;20160;-77
2022/10/21 08:22:00;;;;;;;17.55;4.18;;;22.20;56.30;;;;;;6098801;29;20450;-76
2022/10/21 08:25:01;;;;;;;29.38;5.35;;;22.20;57.10;;;;;;6101094;29;20043;-77
2022/10/21 08:28:03;;;;;;;21.85;3.88;;;22.10;58.20;;;;;;6102074;29;20032;-75
2022/10/21 08:31:07;;;;;;;20.95;3.35;;;22.00;58.90;;;;;;6095880;29;20051;-75
2022/10/21 08:34:09;;;;;;;19.70;3.60;;;21.80;59.40;;;;;;6117216;29;20349;-76
2022/10/21 08:37:10;;;;;;;14.65;3.50;;;21.80;60.10;;;;;;6088299;29;20063;-76
2022/10/21 08:40:11;;;;;;;21.40;4.03;;;21.70;61.00;;;;;;6100771;29;20069;-77
2022/10/21 08:43:23;;;;;;;21.17;3.85;;;21.60;61.50;;;;;;6093709;29;20481;-77
2022/10/21 08:46:30;;;;;;;16.70;3.85;;;21.40;61.70;;;;;;6083134;29;20024;-77
2022/10/21 08:49:59;;;;;;;12.35;3.47;;;21.40;61.80;;;;;;6098396;29;20358;-78
2022/10/21 08:53:10;;;;;;;24.40;3.73;;;21.40;62.10;;;;;;6079430;29;20052;-78
2022/10/21 08:56:13;;;;;;;17.63;3.35;;;21.30;62.50;;;;;;6085064;29;20537;-78
2022/10/21 08:59:23;;;;;;;15.98;3.58;;;21.20;63.50;;;;;;6083404;29;20095;-78
2022/10/21 09:02:36;;;;;;;19.17;4.70;;;21.00;64.50;;;;;;6090416;29;20032;-77
2022/10/21 09:06:04;;;;;;;29.52;7.30;;;20.90;65.00;;;;;;6084566;29;20036;-77
2022/10/21 09:09:31;;;;;;;20.60;8.73;;;20.80;65.50;;;;;;6096330;29;20036;-78
2022/10/21 09:12:38;;;;;;;36.13;9.25;;;20.80;66.20;;;;;;6092111;29;20098;-78
2022/10/21 09:15:54;;;;;;;25.40;8.25;;;20.80;66.80;;;;;;6096191;29;20044;-77
2022/10/21 09:19:30;;;;;;;24.75;7.40;;;20.80;67.30;;;;;;6095745;29;20056;-77
2022/10/21 09:22:54;;;;;;;23.23;6.72;;;20.70;67.30;;;;;;6037815;29;20520;-77
2022/10/21 09:26:13;;;;;;;21.42;8.10;;;20.80;67.00;;;;;;6049172;29;20041;-77
2022/10/21 09:29:24;;;;;;;21.88;5.03;;;20.90;67.20;;;;;;6040096;29;20045;-77
2022/10/21 09:32:33;;;;;;;25.73;8.30;;;21.00;67.10;;;;;;6048339;29;20051;-77
2022/10/21 09:35:41;;;;;;;;;;;21.00;67.10;;;;;;6050019;29;20176;-76
2022/10/21 09:38:55;;;;;;;28.85;9.23;;;21.00;67.00;;;;;;6008768;29;19938;-78
2022/10/21 09:41:57;;;;;;;26.52;7.60;;;21.10;66.80;;;;;;6050152;29;20116;-77
2022/10/21 09:44:58;;;;;;;21.67;7.93;;;21.20;66.80;;;;;;6033613;29;20427;-77
2022/10/21 09:48:19;;;;;;;15.27;3.88;;;21.30;66.50;;;;;;6033412;29;20045;-76
2022/10/21 09:51:31;;;;;;;15.38;3.60;;;21.30;66.20;;;;;;6048492;29;20037;-77
2022/10/21 09:54:36;;;;;;;23.38;7.28;;;21.30;66.00;;;;;;6020855;29;20041;-78
2022/10/21 09:57:43;;;;;;;26.15;6.53;;;21.30;66.10;;;;;;6042899;29;20069;-76
2022/10/21 10:00:47;;;;;;;37.08;13.52;;;21.30;66.20;;;;;;6090763;29;20031;-76
2022/10/21 10:03:50;;;;;;;14.10;5.18;;;21.30;66.10;;;;;;6097951;29;20135;-76
2022/10/21 10:06:51;;;;;;;36.20;11.05;;;21.30;66.10;;;;;;6105784;29;20158;-76
2022/10/21 10:09:52;;;;;;;48.47;14.05;;;21.30;66.20;;;;;;6102947;29;20161;-77
2022/10/21 10:12:57;;;;;;;21.83;7.53;;;21.30;66.40;;;;;;6101573;29;20388;-78
2022/10/21 10:16:21;;;;;;;35.58;12.15;;;21.30;66.70;;;;;;6100357;29;20365;-76
2022/10/21 10:19:26;;;;;;;23.88;7.82;;;21.20;67.00;;;;;;6099912;29;20040;-77
2022/10/21 10:22:27;;;;;;;25.88;7.55;;;21.20;67.00;;;;;;6099881;29;20032;-77
2022/10/21 10:25:34;;;;;;;27.90;7.22;;;21.10;67.20;;;;;;6103118;29;20352;-77
2022/10/21 10:28:35;;;;;;;27.05;8.95;;;21.10;67.50;;;;;;6102402;29;20484;-78
2022/10/21 10:31:36;;;;;;;30.75;8.48;;;21.10;67.60;;;;;;6104017;29;20513;-77
2022/10/21 10:34:54;;;;;;;31.20;6.07;;;21.20;67.60;;;;;;6119901;29;20111;-76
2022/10/21 10:38:01;;;;;;;27.60;10.10;;;21.20;67.40;;;;;;6104307;29;20134;-75
2022/10/21 10:41:10;;;;;;;33.80;12.57;;;21.30;67.30;;;;;;6104196;29;20119;-78
2022/10/21 10:44:24;;;;;;;18.33;5.70;;;21.20;67.40;;;;;;6112457;29;20366;-76
2022/10/21 10:47:29;;;;;;;24.25;4.90;;;21.20;67.60;;;;;;6102968;29;20060;-78
2022/10/21 10:50:41;;;;;;;16.42;5.10;;;21.10;67.90;;;;;;6114861;29;20043;-78
2022/10/21 10:53:41;;;;;;;21.30;6.47;;;21.00;68.40;;;;;;6095277;29;20470;-77
2022/10/21 10:56:48;;;;;;;22.85;4.53;;;21.00;68.50;;;;;;6101251;29;20055;-74
2022/10/21 10:59:55;;;;;;;16.23;3.47;;;21.00;68.60;;;;;;6084569;29;20071;-77
2022/10/21 11:03:06;;;;;;;14.57;4.78;;;21.00;68.50;;;;;;6095085;29;20023;-78
2022/10/21 11:06:20;;;;;;;13.18;4.93;;;21.00;68.60;;;;;;6084411;29;20028;-78
2022/10/21 11:09:23;;;;;;;18.58;4.43;;;21.10;68.90;;;;;;6095468;29;20146;-77
2022/10/21 11:12:25;;;;;;;15.05;3.67;;;21.00;69.00;;;;;;6101291;29;20032;-78
2022/10/21 11:15:40;;;;;;;12.32;3.75;;;21.00;69.00;;;;;;6101743;29;20477;-76
2022/10/21 11:19:03;;;;;;;18.63;5.20;;;21.10;69.10;;;;;;6116303;29;20044;-76
2022/10/21 11:22:12;;;;;;;21.98;4.30;;;21.10;68.90;;;;;;6096500;29;20043;-76
2022/10/21 11:25:22;;;;;;;18.10;5.15;;;21.20;68.50;;;;;;6094733;29;20042;-77
2022/10/21 11:28:28;;;;;;;26.67;4.25;;;21.30;68.30;;;;;;6116310;29;20307;-77
2022/10/21 11:32:07;;;;;;;20.08;5.55;;;21.30;68.10;;;;;;6097772;29;20417;-75
2022/10/21 11:35:26;;;;;;;14.13;3.50;;;21.30;68.10;;;;;;6098169;29;20048;-78
2022/10/21 11:38:46;;;;;;;;;;;21.30;68.10;;;;;;6099641;29;20272;-75
2022/10/21 11:42:01;;;;;;;18.50;4.93;;;21.30;68.20;;;;;;6098932;29;20029;-78
2022/10/21 11:45:18;;;;;;;20.10;4.03;;;21.40;68.20;;;;;;6096303;29;20047;-76
2022/10/21 11:48:41;;;;;;;20.50;4.15;;;21.40;68.80;;;;;;6096918;29;20029;-77
2022/10/21 11:52:09;;;;;;;17.50;4.35;;;21.30;68.20;;;;;;6106502;29;20412;-77
2022/10/21 11:55:29;;;;;;;18.00;3.90;;;21.40;68.00;;;;;;6099485;29;20131;-77
2022/10/21 11:58:48;;;;;;;15.85;3.95;;;21.40;67.90;;;;;;6110802;29;20040;-77
2022/10/21 12:02:15;;;;;;;14.73;3.15;;;21.50;67.80;;;;;;6095683;29;20039;-78
2022/10/21 12:05:33;;;;;;;18.02;4.63;;;21.50;67.60;;;;;;6076650;29;20044;-77
2022/10/21 12:08:40;;;;;;;19.77;5.13;;;21.60;67.40;;;;;;6112850;29;20028;-77
2022/10/21 12:11:53;;;;;;;17.58;3.90;;;21.60;67.10;;;;;;6098160;29;20171;-77
2022/10/21 12:14:58;;;;;;;26.33;8.55;;;21.70;67.10;;;;;;6097725;29;20043;-77
2022/10/21 12:18:02;;;;;;;24.85;8.52;;;21.70;66.90;;;;;;6099732;29;20052;-77
2022/10/21 12:21:05;;;;;;;17.85;5.30;;;21.70;66.70;;;;;;6099639;29;20038;-77
2022/10/21 12:24:31;;;;;;;12.90;4.90;;;21.80;66.60;;;;;;6100351;29;20107;-77
2022/10/21 12:27:43;;;;;;;13.13;4.80;;;21.80;66.60;;;;;;6095967;29;20028;-77
2022/10/21 12:31:16;;;;;;;19.48;5.20;;;21.90;66.40;;;;;;6080799;29;20038;-78
2022/10/21 12:34:17;;;;;;;19.80;6.32;;;21.90;66.40;;;;;;6095605;29;20107;-77
2022/10/21 12:37:41;;;;;;;19.90;5.90;;;21.90;66.30;;;;;;6104174;29;20052;-77
2022/10/21 12:40:42;;;;;;;25.02;9.32;;;21.90;66.50;;;;;;6097420;29;20035;-76
2022/10/21 12:43:57;;;;;;;13.02;3.90;;;21.90;66.30;;;;;;6097691;29;20461;-76
2022/10/21 12:47:19;;;;;;;19.40;4.60;;;21.80;66.40;;;;;;6092806;29;20032;-77
2022/10/21 12:50:29;;;;;;;10.98;3.65;;;21.80;66.50;;;;;;6095807;29;20261;-77
2022/10/21 12:53:46;;;;;;;13.02;2.67;;;21.80;66.50;;;;;;6086658;29;20036;-78
2022/10/21 12:56:51;;;;;;;8.52;2.88;;;21.70;66.50;;;;;;6097152;29;20052;-78
2022/10/21 13:00:15;;;;;;;11.68;2.83;;;21.60;67.30;;;;;;6112768;29;20047;-77
2022/10/21 13:03:19;;;;;;;9.25;3.72;;;21.50;66.60;;;;;;6096024;29;20039;-78
2022/10/21 13:06:51;;;;;;;11.07;2.47;;;21.50;66.50;;;;;;6097647;29;20521;-77
2022/10/21 13:09:53;;;;;;;16.83;2.30;;;21.50;66.60;;;;;;6094111;29;20043;-77
2022/10/21 13:13:28;;;;;;;8.80;1.90;;;21.40;66.20;;;;;;6098431;29;20032;-78
2022/10/21 13:16:35;;;;;;;9.13;2.40;;;21.40;66.20;;;;;;6090005;29;20410;-77
2022/10/21 13:19:36;;;;;;;10.90;2.27;;;21.40;65.90;;;;;;6093935;29;20359;-77
2022/10/21 13:22:40;;;;;;;9.50;1.98;;;21.40;65.90;;;;;;6096265;29;20107;-77
2022/10/21 13:25:41;;;;;;;5.50;1.70;;;21.30;65.70;;;;;;6081234;29;20119;-78
2022/10/21 13:29:01;;;;;;;8.52;3.10;;;21.30;65.50;;;;;;6099648;29;20455;-77
2022/10/21 13:32:17;;;;;;;16.63;4.32;;;21.30;65.60;;;;;;6094996;29;20051;-78
2022/10/21 13:35:18;;;;;;;14.50;5.18;;;21.30;65.70;;;;;;6100539;29;20379;-78
2022/10/21 13:38:26;;;;;;;22.35;8.25;;;21.30;65.70;;;;;;6117168;29;20040;-77
2022/10/21 13:41:29;;;;;;;5.03;2.22;;;21.20;65.60;;;;;;6091965;29;20032;-77
2022/10/21 13:44:37;;;;;;;6.85;2.05;;;21.20;65.50;;;;;;6102181;29;20118;-76
2022/10/21 13:47:38;;;;;;;11.98;2.20;;;21.20;65.50;;;;;;6099947;29;20078;-75
2022/10/21 13:50:42;;;;;;;14.05;1.80;;;21.20;65.50;;;;;;6099339;29;20430;-78
2022/10/21 13:53:45;;;;;;;13.10;2.25;;;21.20;65.60;;;;;;6098547;29;20122;-76
2022/10/21 13:56:46;;;;;;;8.50;2.10;;;21.20;65.60;;;;;;6099524;29;20389;-76
2022/10/21 14:00:15;;;;;;;6.65;2.33;;;21.20;65.80;;;;;;6099597;29;20051;-76
2022/10/21 14:03:18;;;;;;;6.53;1.67;;;21.20;65.70;;;;;;6097512;29;20052;-76
2022/10/21 14:06:31;;;;;;;7.05;2.22;;;21.20;65.60;;;;;;6117978;29;20280;-76
2022/10/21 14:09:39;;;;;;;13.32;4.07;;;21.20;65.50;;;;;;6102137;29;20418;-76
2022/10/21 14:12:43;;;;;;;18.90;6.30;;;21.20;65.40;;;;;;6097021;29;20050;-75
2022/10/21 14:15:44;;;;;;;7.30;3.17;;;21.20;65.40;;;;;;6102132;29;20040;-78
2022/10/21 14:18:48;;;;;;;4.75;1.38;;;21.20;65.40;;;;;;6102358;29;20040;-76
2022/10/21 14:21:52;;;;;;;5.22;1.70;;;21.20;65.40;;;;;;6098491;29;20039;-76
2022/10/21 14:24:56;;;;;;;5.75;1.70;;;21.10;65.60;;;;;;6101404;29;20040;-76
2022/10/21 14:27:59;;;;;;;8.20;2.10;;;21.00;65.80;;;;;;6117575;29;20446;-77
2022/10/21 14:31:01;;;;;;;6.70;2.30;;;21.00;66.00;;;;;;6096029;29;20060;-77
2022/10/21 14:34:06;;;;;;;9.88;2.45;;;21.00;66.20;;;;;;6103686;29;20036;-77
2022/10/21 14:37:09;;;;;;;8.23;1.65;;;21.00;66.30;;;;;;6118351;29;20040;-76
2022/10/21 14:40:19;;;;;;;7.63;2.00;;;20.90;66.40;;;;;;6100420;29;20440;-76
2022/10/21 14:43:32;;;;;;;6.05;2.10;;;20.90;66.50;;;;;;6102251;29;20039;-76
2022/10/21 14:46:44;;;;;;;11.05;1.92;;;20.80;66.50;;;;;;6102288;29;20071;-77
2022/10/21 14:49:51;;;;;;;9.90;3.28;;;20.90;66.50;;;;;;6115986;29;20035;-77
2022/10/21 14:52:53;;;;;;;13.60;2.75;;;20.90;66.40;;;;;;6100389;29;20076;-78
2022/10/21 14:55:57;;;;;;;8.57;2.45;;;21.00;66.30;;;;;;6101102;29;20484;-77
2022/10/21 14:59:14;;;;;;;10.18;2.80;;;21.00;66.20;;;;;;6118616;29;20040;-77
2022/10/21 15:02:20;;;;;;;4.47;1.98;;;21.10;66.10;;;;;;6116960;29;20071;-76
2022/10/21 15:05:39;;;;;;;8.20;3.70;;;21.10;66.00;;;;;;6104888;29;20079;-76
2022/10/21 15:09:01;;;;;;;8.80;4.03;;;21.20;65.90;;;;;;6092266;29;20043;-76
2022/10/21 15:12:17;;;;;;;11.68;3.53;;;21.20;65.60;;;;;;6085136;29;20029;-76
2022/10/21 15:15:38;;;;;;;6.60;2.10;;;21.20;65.60;;;;;;6122477;29;20063;-76
2022/10/21 15:18:42;;;;;;;18.73;6.30;;;21.10;65.60;;;;;;6119499;29;20040;-78
2022/10/21 15:21:59;;;;;;;7.72;2.95;;;21.00;65.80;;;;;;6101034;29;20095;-76
2022/10/21 15:25:17;;;;;;;7.03;4.07;;;21.00;66.00;;;;;;6097159;29;20460;-77
2022/10/21 15:28:22;;;;;;;6.27;2.37;;;21.00;66.20;;;;;;6097175;29;20047;-78
2022/10/21 15:31:25;;;;;;;9.68;5.00;;;21.00;65.90;;;;;;6104998;29;20367;-78
2022/10/21 15:34:26;;;;;;;6.45;2.70;;;20.90;66.00;;;;;;6099721;29;20125;-76
2022/10/21 15:37:27;;;;;;;11.95;3.15;;;20.90;66.40;;;;;;6100092;29;20052;-76
2022/10/21 15:40:31;;;;;;;5.82;2.05;;;20.80;66.60;;;;;;6097857;29;20119;-77
2022/10/21 15:43:32;;;;;;;10.50;2.17;;;20.80;66.50;;;;;;6081189;29;20028;-78
2022/10/21 15:46:40;;;;;;;2.15;1.60;;;20.80;66.40;;;;;;6073833;29;20114;-78
2022/10/21 15:49:42;;;;;;;10.40;3.08;;;20.80;66.50;;;;;;6085920;29;20138;-77
2022/10/21 15:52:43;;;;;;;12.70;5.35;;;20.80;66.60;;;;;;6081346;29;20453;-77
2022/10/21 15:55:44;;;;;;;13.95;6.72;;;20.80;66.40;;;;;;6101660;29;20167;-78
2022/10/21 15:58:45;;;;;;;12.32;3.72;;;20.90;66.40;;;;;;6102360;29;20058;-80